Derby, Vermont
Current Conditions -  °F | °C
As of 8:55 PM on Sunday 21 Dec 2014 (Local Time) from KEFK Reporting Station
Overcast Overcast  
Wind Chill: 19°   Ceiling: 2600
Heat Index: 19°   Visibility: 7mi
Dew Point: 17°   Wind: 0mph
Humidity: 93%   Direction: NA
Pressure: 30.35"   Gusts: NA
Location:  44.96°N, 72.13°W
Report Text: KEFK 220155Z AUTO 00000KT 7SM OVC026 M07/M08 A3035 RMK AO2 T10751085
Loading
Personal Weather Stations






























Interactive Weather Map New forecast layout! Learn more

10-Day Weather Forecast

Advertisements
Track Severe Weather on mobile